createdAt,value
2019-06-08T00:00:38.809Z,54.62
2019-06-08T00:10:30.671Z,54.58
2019-06-08T00:20:33.103Z,54.93
2019-06-08T00:30:37.249Z,53.94
2019-06-08T00:40:32.608Z,53.92
2019-06-08T00:50:30.658Z,53.39
2019-06-08T01:00:34.334Z,52.99
2019-06-08T01:20:32.287Z,51.84
2019-06-08T01:30:38.616Z,52.28
2019-06-08T01:40:37.980Z,51.46
2019-06-08T01:50:33.416Z,53.45
2019-06-08T02:00:39.255Z,54.85
2019-06-08T02:10:32.939Z,54.56
2019-06-08T02:20:30.880Z,54.04
2019-06-08T02:30:36.524Z,53.37
2019-06-08T02:40:35.093Z,52.57
2019-06-08T03:00:35.482Z,51.09
2019-06-08T03:20:33.498Z,50.44
2019-06-08T03:30:35.421Z,49.32
2019-06-08T03:40:33.921Z,51.33
2019-06-08T03:50:30.648Z,51.95
2019-06-08T04:00:31.277Z,52.62
2019-06-08T04:05:30.676Z,52.64
2019-06-08T04:10:30.597Z,52.85
2019-06-08T04:15:34.231Z,52.70
2019-06-08T04:20:30.641Z,53.11
2019-06-08T04:25:30.567Z,53.24
2019-06-08T04:30:31.198Z,53.13
2019-06-08T04:40:33.124Z,54.18
2019-06-08T04:45:33.501Z,53.83
2019-06-08T04:50:33.592Z,54.24
2019-06-08T04:55:33.090Z,54.92
2019-06-08T05:00:31.434Z,55.16
2019-06-08T05:05:33.093Z,55.70
2019-06-08T05:10:30.621Z,56.18
2019-06-08T05:15:30.595Z,56.00
2019-06-08T05:20:38.915Z,55.79
2019-06-08T05:25:30.666Z,55.13
2019-06-08T05:30:32.724Z,55.34
2019-06-08T05:35:32.665Z,56.21
2019-06-08T05:40:30.604Z,56.40
2019-06-08T05:45:32.696Z,56.15
2019-06-08T05:50:33.164Z,55.34
2019-06-08T05:55:30.687Z,55.94
2019-06-08T06:00:33.578Z,55.87
2019-06-08T06:05:33.180Z,55.50
2019-06-08T06:10:32.621Z,54.13
2019-06-08T06:15:32.708Z,53.58
2019-06-08T06:20:33.081Z,52.59
2019-06-08T06:25:30.597Z,51.82
2019-06-08T06:30:33.071Z,50.50
2019-06-08T06:35:33.632Z,49.92
2019-06-08T06:40:32.599Z,50.05
2019-06-08T06:45:30.582Z,50.35
2019-06-08T06:50:32.729Z,49.11
2019-06-08T06:55:32.761Z,48.38
2019-06-08T07:00:33.908Z,48.93
2019-06-08T07:05:30.763Z,48.35
2019-06-08T07:10:32.613Z,45.41
2019-06-08T07:15:41.116Z,46.31
2019-06-08T07:20:30.598Z,45.08
2019-06-08T07:25:33.070Z,45.91
2019-06-08T07:30:32.594Z,45.58
2019-06-08T07:35:31.014Z,46.14
2019-06-08T07:40:30.598Z,45.22
2019-06-08T07:45:33.099Z,45.78
2019-06-08T07:50:30.630Z,46.39
2019-06-08T07:55:30.681Z,45.55
2019-06-08T08:00:31.402Z,46.51
2019-06-08T08:05:30.637Z,45.31
2019-06-08T08:10:32.730Z,46.34
2019-06-08T08:15:30.683Z,45.56
2019-06-08T08:20:32.598Z,44.70
2019-06-08T08:25:30.617Z,44.19
2019-06-08T08:30:33.091Z,43.88
2019-06-08T08:35:32.606Z,43.14
2019-06-08T08:40:33.108Z,43.81
2019-06-08T08:45:30.767Z,42.30
2019-06-08T08:50:33.244Z,44.03
2019-06-08T08:55:32.563Z,43.55
2019-06-08T09:00:33.460Z,44.85
2019-06-08T09:05:30.600Z,45.48
2019-06-08T09:10:30.658Z,44.64
2019-06-08T09:15:31.532Z,44.19
2019-06-08T09:20:33.512Z,42.70
2019-06-08T09:25:32.603Z,43.79
2019-06-08T09:30:33.189Z,41.54
2019-06-08T09:35:32.575Z,40.67
2019-06-08T09:40:38.770Z,35.42
2019-06-08T09:45:33.241Z,36.12
2019-06-08T09:50:32.081Z,36.50
2019-06-08T09:55:32.666Z,34.63
2019-06-08T10:00:34.020Z,31.61
2019-06-08T10:05:30.695Z,32.77
2019-06-08T10:10:32.644Z,32.36
2019-06-08T10:15:33.484Z,34.88
2019-06-08T10:20:38.414Z,31.48
2019-06-08T10:25:42.675Z,32.10
2019-06-08T10:30:38.403Z,32.23
2019-06-08T10:35:33.282Z,31.54
2019-06-08T10:40:35.281Z,30.93
2019-06-08T10:45:30.589Z,29.55
2019-06-08T10:50:32.593Z,27.49
2019-06-08T10:55:33.121Z,27.49
2019-06-08T11:00:33.865Z,28.02
2019-06-08T11:05:33.089Z,29.09
2019-06-08T11:10:32.643Z,26.94
2019-06-08T11:15:33.187Z,29.56
2019-06-08T11:20:38.233Z,28.88
2019-06-08T11:25:32.643Z,29.17
2019-06-08T11:30:33.151Z,29.80
2019-06-08T11:35:33.602Z,29.44
2019-06-08T11:40:30.732Z,29.82
2019-06-08T11:45:33.085Z,30.86
2019-06-08T11:50:42.172Z,29.67
2019-06-08T11:55:32.148Z,29.55
2019-06-08T12:05:30.645Z,30.79
2019-06-08T12:10:32.738Z,30.07
2019-06-08T12:15:32.614Z,31.55
2019-06-08T12:20:33.627Z,28.49
2019-06-08T12:25:33.597Z,28.23
2019-06-08T12:30:33.099Z,29.69
2019-06-08T12:35:33.672Z,30.40
2019-06-08T12:40:33.167Z,28.20
2019-06-08T12:45:33.274Z,31.37
2019-06-08T12:50:33.158Z,29.11
2019-06-08T12:55:37.729Z,28.92
2019-06-08T13:00:31.266Z,27.95
2019-06-08T13:05:32.610Z,28.73
2019-06-08T13:10:32.577Z,27.83
2019-06-08T13:15:33.097Z,29.30
2019-06-08T13:20:33.828Z,27.96
2019-06-08T13:25:40.134Z,29.03
2019-06-08T13:30:33.118Z,28.73
2019-06-08T13:35:33.130Z,27.50
2019-06-08T13:40:30.707Z,28.81
2019-06-08T13:45:33.155Z,28.11
2019-06-08T13:50:32.218Z,27.60
2019-06-08T13:55:48.612Z,26.89
2019-06-08T14:00:38.614Z,26.62
2019-06-08T14:05:33.203Z,28.45
2019-06-08T14:10:38.636Z,25.92
2019-06-08T14:15:32.117Z,25.49
2019-06-08T14:20:34.477Z,27.29
2019-06-08T14:25:46.881Z,27.83
2019-06-08T14:30:32.874Z,27.30
2019-06-08T14:35:36.225Z,24.31
2019-06-08T14:40:33.269Z,27.53
2019-06-08T14:45:31.164Z,26.02
2019-06-08T14:50:40.344Z,24.21
2019-06-08T14:55:34.052Z,26.66
2019-06-08T15:00:33.656Z,27.43
2019-06-08T15:05:35.802Z,25.16
2019-06-08T15:10:33.121Z,25.84
2019-06-08T15:15:33.615Z,25.74
2019-06-08T15:20:37.983Z,27.01
2019-06-08T15:25:33.043Z,25.63
2019-06-08T15:30:33.214Z,26.54
2019-06-08T15:35:32.610Z,27.49
2019-06-08T15:40:33.138Z,25.46
2019-06-08T15:45:34.249Z,27.27
2019-06-08T15:50:30.700Z,25.56
2019-06-08T15:55:34.523Z,26.18
2019-06-08T16:00:34.503Z,27.26
2019-06-08T16:05:33.861Z,28.33
2019-06-08T16:10:34.322Z,27.05
2019-06-08T16:15:31.001Z,25.36
2019-06-08T16:20:35.780Z,25.42
2019-06-08T16:25:36.742Z,26.23
2019-06-08T16:30:33.218Z,26.64
2019-06-08T16:35:33.566Z,26.27
2019-06-08T16:40:31.961Z,28.00
2019-06-08T16:45:33.220Z,26.93
2019-06-08T16:50:34.296Z,27.45
2019-06-08T16:55:31.973Z,28.80
2019-06-08T17:00:43.962Z,26.06
2019-06-08T17:05:31.144Z,26.23
2019-06-08T17:10:33.143Z,28.22
2019-06-08T17:15:33.975Z,29.14
2019-06-08T17:20:43.140Z,28.57
2019-06-08T17:25:34.419Z,27.05
2019-06-08T17:30:37.613Z,27.26
2019-06-08T17:35:33.766Z,28.31
2019-06-08T17:40:33.839Z,27.97
2019-06-08T17:45:42.936Z,28.70
2019-06-08T17:50:32.746Z,28.01
2019-06-08T17:55:43.670Z,28.85
2019-06-08T18:00:42.306Z,28.74
2019-06-08T18:05:42.789Z,29.55
2019-06-08T18:10:33.827Z,30.37
2019-06-08T18:15:34.084Z,30.08
2019-06-08T18:20:34.202Z,29.49
2019-06-08T18:25:32.599Z,30.27
2019-06-08T18:30:33.089Z,30.38
2019-06-08T18:35:30.630Z,31.33
2019-06-08T18:40:43.490Z,30.57
2019-06-08T18:45:33.185Z,31.53
2019-06-08T18:50:43.653Z,31.04
2019-06-08T18:55:30.674Z,31.43
2019-06-08T19:00:41.586Z,31.92
2019-06-08T19:05:30.644Z,33.22
2019-06-08T19:10:37.401Z,33.93
2019-06-08T19:15:38.807Z,34.59
2019-06-08T19:20:32.159Z,34.95
2019-06-08T19:25:33.415Z,35.68
2019-06-08T19:30:30.762Z,35.97
2019-06-08T19:40:30.720Z,35.84
2019-06-08T19:50:30.768Z,35.84
2019-06-08T20:00:33.222Z,36.52
2019-06-08T20:10:30.568Z,36.83
2019-06-08T20:20:33.115Z,38.99
2019-06-08T20:30:33.213Z,40.01
2019-06-08T20:40:43.997Z,41.49
2019-06-08T20:50:32.647Z,41.13
2019-06-08T21:00:33.924Z,42.02
2019-06-08T21:10:33.193Z,41.66
2019-06-08T21:20:39.099Z,40.66
2019-06-08T21:30:33.330Z,43.64
2019-06-08T21:40:37.585Z,43.36
2019-06-08T21:50:30.699Z,43.80
2019-06-08T22:00:40.310Z,49.10
2019-06-08T22:15:39.215Z,46.96
2019-06-08T22:30:39.120Z,47.73
2019-06-08T22:40:33.148Z,48.25
2019-06-08T22:50:33.119Z,49.05
2019-06-08T23:00:31.524Z,48.57
2019-06-08T23:20:30.721Z,52.14
2019-06-08T23:30:33.182Z,52.97
2019-06-08T23:40:30.606Z,51.10
2019-06-08T23:50:33.126Z,50.48
